Time;durP1;ratioP1;P1;durP2;ratioP2;P2;SDS_P1;SDS_P2;PMS_P1;PMS_P2;Temp;Humidity;BMP_temperature;BMP_pressure;BME280_temperature;BME280_humidity;BME280_pressure;Samples;Min_cycle;Max_cycle;Signal;HPM_P1;HPM_P2
2023/04/23 00:02:03;;;;;;;4.77;3.20;;;14.10;86.30;;;;;;4897093;29;20219;-80
2023/04/23 00:04:43;;;;;;;5.30;3.63;;;14.10;86.30;;;;;;4897904;29;20192;-81
2023/04/23 00:07:16;;;;;;;9.30;3.37;;;14.10;86.20;;;;;;4894284;29;20200;-78
2023/04/23 00:09:46;;;;;;;9.83;4.03;;;14.10;86.20;;;;;;4894902;29;20268;-77
2023/04/23 00:12:15;;;;;;;4.03;2.70;;;14.00;86.10;;;;;;4894378;29;20213;-76
2023/04/23 00:14:43;;;;;;;8.80;4.43;;;14.10;86.30;;;;;;4902273;29;20704;-76
2023/04/23 00:17:12;;;;;;;5.47;3.03;;;14.00;86.30;;;;;;4900391;29;20224;-76
2023/04/23 00:19:40;;;;;;;8.00;4.57;;;14.00;86.40;;;;;;4887539;29;20637;-76
2023/04/23 00:22:08;;;;;;;6.53;3.73;;;14.00;86.60;;;;;;4887704;29;20248;-76
2023/04/23 00:24:38;;;;;;;6.00;3.83;;;14.00;86.60;;;;;;4886842;29;20204;-76
2023/04/23 00:27:07;;;;;;;5.70;3.53;;;13.90;86.60;;;;;;4887498;29;20200;-76
2023/04/23 00:29:35;;;;;;;6.70;4.33;;;13.90;86.60;;;;;;4888559;29;20252;-76
2023/04/23 00:32:03;;;;;;;6.73;3.80;;;13.90;86.50;;;;;;4886867;29;20192;-76
2023/04/23 00:34:32;;;;;;;19.63;3.70;;;13.90;86.50;;;;;;4888562;29;20208;-76
2023/04/23 00:37:04;;;;;;;3.53;2.43;;;13.90;86.50;;;;;;4892255;29;20240;-76
2023/04/23 00:39:34;;;;;;;6.03;3.80;;;13.80;86.50;;;;;;4900643;29;20255;-76
2023/04/23 00:42:10;;;;;;;7.13;3.90;;;13.80;86.40;;;;;;4893035;29;20228;-76
2023/04/23 00:44:39;;;;;;;6.30;3.80;;;13.80;86.50;;;;;;4886842;29;20595;-75
2023/04/23 00:47:08;;;;;;;7.73;3.90;;;13.80;86.50;;;;;;4893595;29;20201;-78
2023/04/23 00:49:38;;;;;;;8.97;3.70;;;13.80;86.60;;;;;;4895871;29;20721;-76
2023/04/23 00:52:07;;;;;;;6.13;3.77;;;13.80;86.60;;;;;;4898391;29;20658;-75
2023/04/23 00:54:35;;;;;;;9.00;4.63;;;13.80;86.60;;;;;;4890867;29;20204;-75
2023/04/23 00:57:06;;;;;;;8.23;4.17;;;13.80;86.80;;;;;;4899598;29;20243;-75
2023/04/23 00:59:36;;;;;;;7.17;3.97;;;13.70;86.90;;;;;;4897694;29;20634;-75
2023/04/23 01:02:04;;;;;;;8.57;4.50;;;13.70;86.90;;;;;;4901623;29;20205;-76
2023/04/23 01:04:33;;;;;;;9.20;5.23;;;13.70;86.90;;;;;;4901142;29;20564;-76
2023/04/23 01:07:02;;;;;;;9.37;4.07;;;13.60;86.90;;;;;;4904241;29;20204;-76
2023/04/23 01:09:32;;;;;;;6.90;3.67;;;13.60;86.90;;;;;;4901360;29;20657;-75
2023/04/23 01:12:02;;;;;;;6.53;4.47;;;13.60;87.00;;;;;;4900871;29;20189;-76
2023/04/23 01:14:32;;;;;;;5.63;3.63;;;13.60;86.90;;;;;;4898217;29;20244;-76
2023/04/23 01:17:00;;;;;;;7.03;3.70;;;13.60;86.90;;;;;;4902127;29;20675;-76
2023/04/23 01:19:29;;;;;;;7.27;4.10;;;13.60;87.00;;;;;;4901823;29;20295;-76
2023/04/23 01:22:00;;;;;;;7.27;4.57;;;13.50;87.00;;;;;;4899774;29;20204;-75
2023/04/23 01:24:31;;;;;;;7.20;3.73;;;13.50;87.00;;;;;;4901913;29;20937;-75
2023/04/23 01:27:00;;;;;;;6.77;4.90;;;13.50;87.00;;;;;;4901231;29;20209;-75
2023/04/23 01:29:30;;;;;;;10.63;4.33;;;13.50;87.00;;;;;;4899941;29;20294;-75
2023/04/23 01:31:59;;;;;;;8.37;3.60;;;13.40;87.10;;;;;;4902318;29;20200;-76
2023/04/23 01:34:27;;;;;;;7.33;4.50;;;13.40;87.00;;;;;;4899729;29;20231;-76
2023/04/23 01:36:56;;;;;;;7.17;4.17;;;13.40;87.00;;;;;;4896710;29;20224;-76
2023/04/23 01:39:25;;;;;;;6.53;3.70;;;13.40;87.00;;;;;;4901291;29;21196;-76
2023/04/23 01:41:56;;;;;;;7.30;3.90;;;13.40;87.00;;;;;;4901145;29;20220;-76
2023/04/23 01:44:24;;;;;;;5.93;3.37;;;13.40;87.00;;;;;;4898867;29;20223;-76
2023/04/23 01:46:53;;;;;;;7.47;4.63;;;13.40;87.00;;;;;;4897304;29;20577;-76
2023/04/23 01:49:22;;;;;;;7.20;4.13;;;13.30;87.10;;;;;;4897997;29;20608;-76
2023/04/23 01:51:50;;;;;;;10.13;4.13;;;13.30;87.10;;;;;;4897825;29;20200;-76
2023/04/23 01:54:18;;;;;;;6.57;4.17;;;13.30;87.10;;;;;;4898862;29;20619;-76
2023/04/23 01:56:47;;;;;;;7.30;4.30;;;13.30;87.10;;;;;;4898198;29;20199;-75
2023/04/23 01:59:16;;;;;;;9.10;4.47;;;13.30;87.20;;;;;;4899585;29;20197;-76
2023/04/23 02:01:46;;;;;;;6.73;3.63;;;13.20;87.20;;;;;;4901482;29;20223;-75
2023/04/23 02:04:15;;;;;;;5.83;4.07;;;13.20;87.30;;;;;;4902094;29;20267;-76
2023/04/23 02:06:47;;;;;;;6.93;4.97;;;13.20;87.40;;;;;;4899364;29;20200;-75
2023/04/23 02:09:15;;;;;;;5.00;3.33;;;13.10;87.30;;;;;;4896302;29;20197;-76
2023/04/23 02:11:43;;;;;;;5.03;3.50;;;13.10;87.30;;;;;;4899307;29;20192;-75
2023/04/23 02:14:12;;;;;;;6.20;3.43;;;13.10;88.20;;;;;;4901415;29;20241;-75
2023/04/23 02:16:42;;;;;;;7.60;3.27;;;13.10;87.50;;;;;;4902040;29;20234;-76
2023/04/23 02:19:11;;;;;;;9.23;4.73;;;13.10;87.50;;;;;;4900405;29;20196;-77
2023/04/23 02:21:43;;;;;;;5.30;3.57;;;13.10;87.60;;;;;;4902573;29;20204;-75
2023/04/23 02:24:11;;;;;;;8.07;4.30;;;13.00;87.60;;;;;;4900365;29;20247;-76
2023/04/23 02:26:39;;;;;;;8.53;4.17;;;13.00;87.70;;;;;;4898340;29;20239;-76
2023/04/23 02:29:09;;;;;;;7.20;3.67;;;13.00;87.70;;;;;;4897724;29;20204;-77
2023/04/23 02:31:37;;;;;;;7.47;4.83;;;13.00;88.50;;;;;;4896342;29;20192;-76
2023/04/23 02:34:07;;;;;;;11.13;5.63;;;12.90;87.60;;;;;;4896577;29;20204;-76
2023/04/23 02:36:35;;;;;;;9.27;3.87;;;12.90;87.70;;;;;;4899832;29;20225;-76
2023/04/23 02:39:04;;;;;;;5.70;3.13;;;12.90;87.60;;;;;;4898019;29;20585;-76
2023/04/23 02:41:32;;;;;;;8.77;3.83;;;12.90;87.60;;;;;;4898059;29;20266;-76
2023/04/23 02:44:00;;;;;;;6.87;4.13;;;12.90;87.90;;;;;;4900627;29;20223;-76
2023/04/23 02:46:30;;;;;;;7.10;4.17;;;12.90;87.90;;;;;;4898588;29;20205;-75
2023/04/23 02:48:59;;;;;;;6.67;3.27;;;12.80;88.60;;;;;;4899494;29;20201;-76
2023/04/23 02:51:28;;;;;;;8.40;3.33;;;12.80;87.80;;;;;;4893256;29;20219;-76
2023/04/23 02:53:57;;;;;;;6.60;4.07;;;12.80;87.80;;;;;;4899234;29;20735;-75
2023/04/23 02:56:25;;;;;;;6.53;4.20;;;12.80;88.00;;;;;;4897984;29;20204;-76
2023/04/23 02:58:54;;;;;;;8.23;3.40;;;12.80;87.90;;;;;;4902263;29;20201;-76
2023/04/23 03:01:22;;;;;;;6.40;4.13;;;12.80;88.00;;;;;;4901667;29;20564;-76
2023/04/23 03:03:51;;;;;;;7.90;4.57;;;12.70;87.90;;;;;;4903978;29;20259;-76
2023/04/23 03:06:20;;;;;;;8.87;3.50;;;12.70;87.80;;;;;;4904166;29;20247;-76
2023/04/23 03:08:49;;;;;;;4.83;2.93;;;12.70;87.80;;;;;;4899694;29;20661;-76
2023/04/23 03:11:18;;;;;;;4.33;2.87;;;12.70;87.80;;;;;;4897438;29;20213;-76
2023/04/23 03:13:46;;;;;;;5.03;2.60;;;12.70;87.70;;;;;;4900232;29;20543;-76
2023/04/23 03:16:14;;;;;;;5.43;2.73;;;12.70;87.70;;;;;;4900414;29;20759;-76
2023/04/23 03:18:43;;;;;;;8.83;4.13;;;12.70;87.70;;;;;;4902762;29;20204;-77
2023/04/23 03:21:11;;;;;;;5.07;3.47;;;12.70;87.70;;;;;;4896871;29;20201;-76
2023/04/23 03:23:40;;;;;;;8.40;3.70;;;12.70;87.70;;;;;;4898021;29;20224;-76
2023/04/23 03:26:10;;;;;;;6.63;3.90;;;12.60;87.80;;;;;;4897553;29;20248;-77
2023/04/23 03:28:38;;;;;;;6.53;4.10;;;12.70;87.80;;;;;;4902066;29;20203;-76
2023/04/23 03:31:06;;;;;;;8.80;4.13;;;12.60;87.70;;;;;;4899393;29;20197;-76
2023/04/23 03:33:35;;;;;;;7.97;5.23;;;12.60;87.80;;;;;;4897482;29;20221;-76
2023/04/23 03:36:04;;;;;;;6.17;3.60;;;12.60;88.00;;;;;;4890863;29;20224;-76
2023/04/23 03:38:32;;;;;;;8.03;3.77;;;12.60;87.80;;;;;;4892831;29;20228;-76
2023/04/23 03:41:00;;;;;;;7.83;3.43;;;12.60;87.90;;;;;;4889584;29;20198;-76
2023/04/23 03:43:30;;;;;;;7.43;3.67;;;12.60;88.00;;;;;;4896719;29;20340;-75
2023/04/23 03:45:58;;;;;;;10.50;4.63;;;12.60;88.10;;;;;;4894540;29;20200;-76
2023/04/23 03:48:27;;;;;;;7.63;4.30;;;12.60;88.10;;;;;;4886248;29;20204;-76
2023/04/23 03:50:55;;;;;;;7.30;3.90;;;12.60;88.10;;;;;;4895622;29;20221;-76
2023/04/23 03:53:23;;;;;;;6.67;4.10;;;12.60;88.10;;;;;;4891850;29;20193;-76
2023/04/23 03:55:52;;;;;;;6.10;3.13;;;12.60;88.10;;;;;;4888371;29;20197;-77
2023/04/23 03:58:20;;;;;;;6.70;3.50;;;12.70;88.50;;;;;;4899460;29;20204;-76
2023/04/23 04:00:50;;;;;;;4.83;3.13;;;12.70;88.30;;;;;;4897795;29;21919;-76
2023/04/23 04:03:18;;;;;;;8.23;4.63;;;12.70;88.30;;;;;;4897554;29;20200;-76
2023/04/23 04:05:47;;;;;;;9.67;5.27;;;12.70;88.30;;;;;;4895909;29;20713;-76
2023/04/23 04:08:15;;;;;;;5.93;3.80;;;12.70;88.30;;;;;;4900047;29;20200;-76
2023/04/23 04:10:44;;;;;;;7.43;4.20;;;12.70;88.30;;;;;;4899219;29;20200;-76
2023/04/23 04:13:12;;;;;;;8.73;4.53;;;12.80;89.30;;;;;;4897256;29;20221;-76
2023/04/23 04:15:40;;;;;;;8.07;4.67;;;12.80;88.60;;;;;;4894116;29;20631;-78
2023/04/23 04:18:10;;;;;;;5.93;3.43;;;12.80;88.70;;;;;;4893112;29;20246;-77
2023/04/23 04:20:38;;;;;;;8.50;4.27;;;12.80;88.70;;;;;;4897263;29;20200;-77
2023/04/23 04:23:07;;;;;;;14.87;4.40;;;12.80;88.80;;;;;;4894576;29;20219;-77
2023/04/23 04:25:38;;;;;;;6.43;3.93;;;12.90;88.80;;;;;;4901015;29;20673;-77
2023/04/23 04:28:08;;;;;;;6.70;3.20;;;12.90;88.90;;;;;;4899334;29;20546;-77
2023/04/23 04:30:37;;;;;;;5.70;4.07;;;12.90;88.90;;;;;;4898577;29;20225;-77
2023/04/23 04:33:05;;;;;;;8.20;4.80;;;12.90;89.00;;;;;;4896523;29;20204;-77
2023/04/23 04:35:35;;;;;;;9.67;4.20;;;13.00;89.10;;;;;;4893793;29;20207;-77
2023/04/23 04:38:03;;;;;;;8.33;4.57;;;13.00;89.20;;;;;;4894423;29;20256;-77
2023/04/23 04:40:32;;;;;;;7.37;4.80;;;13.10;89.30;;;;;;4890961;29;20621;-76
2023/04/23 04:43:01;;;;;;;8.90;4.07;;;13.10;89.30;;;;;;4894715;29;20196;-76
2023/04/23 04:45:29;;;;;;;10.67;4.40;;;13.20;89.50;;;;;;4897012;29;20226;-76
2023/04/23 04:47:57;;;;;;;6.70;3.83;;;13.20;89.60;;;;;;4895311;29;20252;-77
2023/04/23 04:50:26;;;;;;;8.50;4.63;;;13.30;89.60;;;;;;4893106;29;20208;-77
2023/04/23 04:52:56;;;;;;;5.53;3.30;;;13.30;89.70;;;;;;4895442;29;20205;-79
2023/04/23 04:55:24;;;;;;;7.63;4.00;;;13.40;89.70;;;;;;4895835;29;20657;-77
2023/04/23 04:57:54;;;;;;;7.77;2.97;;;13.50;89.80;;;;;;4894634;29;20597;-78
2023/04/23 05:00:26;;;;;;;7.63;3.83;;;13.60;89.70;;;;;;4892547;29;20193;-77
2023/04/23 05:02:56;;;;;;;7.97;3.03;;;13.70;90.30;;;;;;4898712;29;20690;-77
2023/04/23 05:05:26;;;;;;;7.27;4.00;;;13.80;89.90;;;;;;4896495;29;20235;-78
2023/04/23 05:07:58;;;;;;;6.57;3.10;;;13.80;89.80;;;;;;4896638;29;20193;-78
2023/04/23 05:10:26;;;;;;;7.10;4.33;;;13.90;89.80;;;;;;4895976;29;20196;-77
2023/04/23 05:12:54;;;;;;;11.40;2.77;;;13.90;89.80;;;;;;4892622;29;20300;-77
2023/04/23 05:15:28;;;;;;;11.10;4.53;;;14.00;89.90;;;;;;4896737;29;20260;-78
2023/04/23 05:17:56;;;;;;;9.87;4.10;;;14.10;89.80;;;;;;4898907;29;20268;-77
2023/04/23 05:20:26;;;;;;;6.53;4.80;;;14.20;89.80;;;;;;4894607;29;20192;-76
2023/04/23 05:22:58;;;;;;;11.13;5.70;;;14.20;90.00;;;;;;4898648;29;20196;-77
2023/04/23 05:25:26;;;;;;;9.47;5.00;;;14.30;90.00;;;;;;4887230;29;20677;-77
2023/04/23 05:27:55;;;;;;;8.03;4.70;;;14.50;90.00;;;;;;4895021;29;20205;-76
2023/04/23 05:30:24;;;;;;;9.67;5.20;;;14.50;89.80;;;;;;4895842;29;20200;-78
2023/04/23 05:32:52;;;;;;;10.07;5.83;;;14.60;89.60;;;;;;4897846;29;20260;-77
2023/04/23 05:35:21;;;;;;;11.67;6.43;;;14.80;89.60;;;;;;4897220;29;20271;-77
2023/04/23 05:37:50;;;;;;;12.33;5.43;;;14.90;89.40;;;;;;4891862;29;20200;-77
2023/04/23 05:40:20;;;;;;;12.90;6.73;;;15.00;89.10;;;;;;4895528;29;20197;-78
2023/04/23 05:42:48;;;;;;;17.63;6.97;;;15.00;88.80;;;;;;4894947;29;20201;-77
2023/04/23 05:45:16;;;;;;;11.40;5.67;;;15.10;88.70;;;;;;4900073;29;20625;-76
2023/04/23 05:47:45;;;;;;;10.50;5.73;;;15.10;88.60;;;;;;4900397;29;20201;-76
2023/04/23 05:50:13;;;;;;;21.37;6.43;;;15.20;88.40;;;;;;4899236;29;20669;-75
2023/04/23 05:52:41;;;;;;;11.00;5.87;;;15.30;88.10;;;;;;4894786;29;20256;-76
2023/04/23 05:55:10;;;;;;;8.33;5.20;;;15.40;87.90;;;;;;4899574;29;20614;-76
2023/04/23 05:57:40;;;;;;;18.13;5.87;;;15.50;87.50;;;;;;4897415;29;20188;-76
2023/04/23 06:00:10;;;;;;;10.80;6.67;;;15.50;87.20;;;;;;4900403;29;20196;-77
2023/04/23 06:02:39;;;;;;;11.37;5.80;;;15.60;87.20;;;;;;4901442;29;20300;-77
2023/04/23 06:05:08;;;;;;;12.37;6.10;;;15.70;87.20;;;;;;4898988;29;20232;-76
2023/04/23 06:07:37;;;;;;;14.27;6.73;;;15.70;87.10;;;;;;4898015;29;20201;-76
2023/04/23 06:10:07;;;;;;;9.90;5.33;;;15.80;86.40;;;;;;4892177;29;20262;-77
2023/04/23 06:12:38;;;;;;;10.37;5.67;;;15.80;86.20;;;;;;4891540;29;20209;-76
2023/04/23 06:15:10;;;;;;;11.60;6.10;;;15.80;85.80;;;;;;4897052;29;20224;-77
2023/04/23 06:17:38;;;;;;;11.00;5.20;;;15.90;86.10;;;;;;4900210;29;20227;-77
2023/04/23 06:20:10;;;;;;;16.00;5.13;;;16.00;86.20;;;;;;4901903;29;20196;-77
2023/04/23 06:22:39;;;;;;;9.03;4.80;;;16.10;85.80;;;;;;4899666;29;20197;-77
2023/04/23 06:25:08;;;;;;;8.13;4.47;;;16.20;85.50;;;;;;4900362;29;20229;-77
2023/04/23 06:27:36;;;;;;;9.97;4.60;;;16.20;84.60;;;;;;4898075;29;20228;-76
2023/04/23 06:30:08;;;;;;;11.23;5.40;;;16.30;84.50;;;;;;4895200;29;20197;-76
2023/04/23 06:32:36;;;;;;;6.67;4.07;;;16.30;84.30;;;;;;4897157;29;20196;-76
2023/04/23 06:35:06;;;;;;;11.97;5.07;;;16.40;83.90;;;;;;4902070;29;20203;-76
2023/04/23 06:37:35;;;;;;;8.80;4.87;;;16.40;84.30;;;;;;4898566;29;20196;-74
2023/04/23 06:40:04;;;;;;;17.53;5.13;;;16.40;83.90;;;;;;4895031;29;21056;-76
2023/04/23 06:42:32;;;;;;;8.47;5.33;;;16.50;83.40;;;;;;4896349;29;20212;-77
2023/04/23 06:45:03;;;;;;;8.73;4.57;;;16.50;82.80;;;;;;4897933;29;20200;-74
2023/04/23 06:47:35;;;;;;;7.50;4.70;;;16.50;83.00;;;;;;4901578;29;20201;-76
2023/04/23 06:50:04;;;;;;;9.10;4.40;;;16.60;82.20;;;;;;4897168;29;20966;-76
2023/04/23 06:52:32;;;;;;;8.07;3.90;;;16.60;82.40;;;;;;4894261;29;20200;-74
2023/04/23 06:55:01;;;;;;;9.00;4.33;;;16.60;82.10;;;;;;4906170;29;20204;-75
2023/04/23 06:57:29;;;;;;;7.43;5.03;;;16.70;82.20;;;;;;4896838;29;20200;-77
2023/04/23 06:59:57;;;;;;;9.80;3.47;;;16.70;81.30;;;;;;4896833;29;20231;-75
2023/04/23 07:02:26;;;;;;;4.00;2.70;;;16.70;81.10;;;;;;4895941;29;20610;-75
2023/04/23 07:04:56;;;;;;;7.80;3.77;;;16.80;79.80;;;;;;4894566;29;20211;-74
2023/04/23 07:07:24;;;;;;;6.33;3.30;;;16.90;80.30;;;;;;4894594;29;20275;-74
2023/04/23 07:09:53;;;;;;;5.47;2.90;;;17.00;80.60;;;;;;4899068;29;20354;-76
2023/04/23 07:12:21;;;;;;;6.80;4.00;;;17.00;79.80;;;;;;4901628;29;20658;-77
2023/04/23 07:14:52;;;;;;;5.97;2.87;;;17.00;75.30;;;;;;4900923;29;20291;-75
2023/04/23 07:17:20;;;;;;;4.27;2.80;;;17.10;76.40;;;;;;4896403;29;20256;-76
2023/04/23 07:19:49;;;;;;;9.90;3.40;;;17.20;76.90;;;;;;4900689;29;20649;-75
2023/04/23 07:22:19;;;;;;;4.00;2.73;;;17.20;76.70;;;;;;4905029;29;20200;-75
2023/04/23 07:24:47;;;;;;;8.67;3.20;;;17.30;76.70;;;;;;4905518;29;20191;-75
2023/04/23 07:27:15;;;;;;;14.77;3.70;;;17.30;75.00;;;;;;4897811;29;20232;-76
2023/04/23 07:29:44;;;;;;;6.30;3.90;;;17.40;75.40;;;;;;4899683;29;20220;-76
2023/04/23 07:32:12;;;;;;;6.93;2.33;;;17.40;75.10;;;;;;4896031;29;20196;-78
2023/04/23 07:34:41;;;;;;;8.03;1.97;;;17.50;75.10;;;;;;4895310;29;20680;-77
2023/04/23 07:37:10;;;;;;;6.43;2.20;;;17.50;71.00;;;;;;4895692;29;20229;-77
2023/04/23 07:39:40;;;;;;;5.07;2.93;;;17.60;71.00;;;;;;4893440;29;20196;-77
2023/04/23 07:42:11;;;;;;;3.10;1.60;;;17.60;72.30;;;;;;4896516;29;20188;-77
2023/04/23 07:44:39;;;;;;;4.17;1.67;;;17.70;73.00;;;;;;4897497;29;20248;-77
2023/04/23 07:47:08;;;;;;;3.23;1.73;;;17.80;72.30;;;;;;4890357;29;20232;-75
2023/04/23 07:49:36;;;;;;;4.50;1.97;;;17.90;72.90;;;;;;4892320;29;20545;-76
2023/04/23 07:52:05;;;;;;;3.20;1.87;;;18.00;71.40;;;;;;4894287;29;20212;-74
2023/04/23 07:54:33;;;;;;;3.10;1.90;;;18.00;72.10;;;;;;4893168;29;20208;-77
2023/04/23 07:57:03;;;;;;;2.80;1.73;;;18.10;70.30;;;;;;4898144;29;20193;-77
2023/04/23 07:59:31;;;;;;;3.83;2.10;;;18.10;68.40;;;;;;4891288;29;20208;-77
2023/04/23 08:02:01;;;;;;;3.10;1.73;;;18.10;67.90;;;;;;4895121;29;20666;-77
2023/04/23 08:04:29;;;;;;;3.60;1.83;;;18.10;68.40;;;;;;4895433;29;20201;-78
2023/04/23 08:06:58;;;;;;;4.83;1.57;;;18.20;69.10;;;;;;4898560;29;20303;-78
2023/04/23 08:09:26;;;;;;;3.27;1.80;;;18.20;67.30;;;;;;4891000;29;20200;-78
2023/04/23 08:11:56;;;;;;;5.20;2.40;;;18.20;65.50;;;;;;4898508;29;20204;-78
2023/04/23 08:14:26;;;;;;;2.53;1.53;;;18.30;67.20;;;;;;4895350;29;20245;-78
2023/04/23 08:16:54;;;;;;;3.67;2.47;;;18.40;67.80;;;;;;4890183;29;20207;-82
2023/04/23 08:19:22;;;;;;;3.60;1.73;;;18.40;66.60;;;;;;4894706;29;20236;-78
2023/04/23 08:21:51;;;;;;;2.57;1.80;;;18.40;66.10;;;;;;4895468;29;20233;-79
2023/04/23 08:24:20;;;;;;;6.50;2.17;;;18.40;66.20;;;;;;4893686;29;20204;-77
2023/04/23 08:26:48;;;;;;;2.70;1.60;;;18.50;66.40;;;;;;4894199;29;20276;-77
2023/04/23 08:29:17;;;;;;;2.67;1.53;;;18.50;65.30;;;;;;4895670;29;20252;-80
2023/04/23 08:31:52;;;;;;;4.63;2.00;;;18.60;66.50;;;;;;4892944;29;20232;-86
2023/04/23 08:34:23;;;;;;;2.23;1.27;;;18.60;66.50;;;;;;4881323;29;20681;-80
2023/04/23 08:36:51;;;;;;;7.07;1.80;;;18.70;67.00;;;;;;4898274;29;20212;-82
2023/04/23 08:39:20;;;;;;;5.30;1.70;;;18.70;66.10;;;;;;4895104;29;20204;-81
2023/04/23 08:41:54;;;;;;;3.20;1.27;;;18.80;65.20;;;;;;4896329;29;20200;-79
2023/04/23 08:44:25;;;;;;;4.53;1.90;;;18.90;66.00;;;;;;4897319;29;20641;-80
2023/04/23 08:46:55;;;;;;;3.60;1.83;;;18.90;66.30;;;;;;4897534;29;20220;-79
2023/04/23 08:49:25;;;;;;;4.70;1.70;;;18.90;65.30;;;;;;4889724;29;20196;-79
2023/04/23 08:51:54;;;;;;;2.87;1.53;;;19.00;66.00;;;;;;4893950;29;20204;-75
2023/04/23 08:54:26;;;;;;;9.00;1.93;;;19.10;66.40;;;;;;4893436;29;20196;-76
2023/04/23 08:56:57;;;;;;;5.53;1.30;;;19.10;65.80;;;;;;4889516;29;20197;-77
2023/04/23 08:59:26;;;;;;;6.80;2.00;;;19.20;66.40;;;;;;4892094;29;20291;-80
2023/04/23 09:01:58;;;;;;;6.73;2.07;;;19.20;65.90;;;;;;4889810;29;20252;-77
2023/04/23 09:04:27;;;;;;;2.90;1.33;;;19.30;65.20;;;;;;4890622;29;20197;-78
2023/04/23 09:06:56;;;;;;;2.33;1.20;;;19.30;62.90;;;;;;4900269;29;20596;-78
2023/04/23 09:09:27;;;;;;;4.27;1.50;;;19.40;63.30;;;;;;4901330;29;20543;-76
2023/04/23 09:11:56;;;;;;;2.60;1.63;;;19.40;62.50;;;;;;4907703;29;20659;-77
2023/04/23 09:14:25;;;;;;;2.10;1.60;;;19.50;62.50;;;;;;4890271;29;20200;-82
2023/04/23 09:16:56;;;;;;;13.87;3.83;;;19.60;63.10;;;;;;4904196;29;20717;-80
2023/04/23 09:19:27;;;;;;;3.50;1.43;;;19.60;60.10;;;;;;4894852;29;20228;-77
2023/04/23 09:21:56;;;;;;;5.93;1.20;;;19.60;60.00;;;;;;4897923;29;20272;-78
2023/04/23 09:24:25;;;;;;;2.70;1.20;;;19.70;60.60;;;;;;4897317;29;20208;-77
2023/04/23 09:26:53;;;;;;;2.70;1.53;;;19.80;61.40;;;;;;4900456;29;20215;-76
2023/04/23 09:29:23;;;;;;;3.40;1.50;;;19.90;62.10;;;;;;4908020;29;20196;-79
2023/04/23 09:31:52;;;;;;;1.60;1.17;;;19.90;59.40;;;;;;4900551;29;20566;-77
2023/04/23 09:34:25;;;;;;;2.95;1.38;;;19.90;59.70;;;;;;4898917;29;20256;-76
2023/04/23 09:36:54;;;;;;;3.53;1.83;;;19.90;59.80;;;;;;4900362;29;20233;-76
2023/04/23 09:39:23;;;;;;;2.60;1.30;;;20.00;60.00;;;;;;4899832;29;20207;-77
2023/04/23 09:41:53;;;;;;;2.05;1.17;;;20.00;59.70;;;;;;4901366;29;20224;-75
2023/04/23 09:44:22;;;;;;;1.95;1.17;;;20.10;60.40;;;;;;4905123;29;20227;-78
2023/04/23 09:47:08;;;;;;;3.33;1.45;;;20.20;60.80;;;;;;4898190;29;20204;-79
2023/04/23 09:49:47;;;;;;;1.70;1.27;;;20.20;58.60;;;;;;4900166;29;20230;-79
2023/04/23 09:52:16;;;;;;;2.88;1.38;;;20.20;59.30;;;;;;4900478;29;20199;-83
2023/04/23 09:54:46;;;;;;;3.92;1.85;;;20.30;59.60;;;;;;4902435;29;20201;-77
2023/04/23 09:57:15;;;;;;;2.63;1.63;;;20.30;57.30;;;;;;4902007;29;20677;-76
2023/04/23 09:59:43;;;;;;;2.72;1.50;;;20.40;57.70;;;;;;4898685;29;20203;-78
2023/04/23 10:02:17;;;;;;;4.18;1.48;;;20.50;58.50;;;;;;4902556;29;20581;-76
2023/04/23 10:04:51;;;;;;;2.30;0.98;;;20.50;57.80;;;;;;4893106;29;20197;-77
2023/04/23 10:07:34;;;;;;;2.58;1.05;;;20.60;58.80;;;;;;4894839;29;20685;-76
2023/04/23 10:10:03;;;;;;;2.47;1.40;;;20.70;58.80;;;;;;4900189;29;20239;-74
2023/04/23 10:12:32;;;;;;;3.00;1.52;;;20.70;57.90;;;;;;4890922;29;20268;-75
2023/04/23 10:15:20;;;;;;;3.13;1.10;;;20.80;58.00;;;;;;4897934;29;20208;-76
2023/04/23 10:17:49;;;;;;;9.25;1.70;;;20.80;57.80;;;;;;4899060;29;20196;-77
2023/04/23 10:20:22;;;;;;;1.85;1.10;;;20.90;57.80;;;;;;4899805;29;20249;-76
2023/04/23 10:22:53;;;;;;;2.38;1.50;;;20.90;56.20;;;;;;4900122;29;20200;-76
2023/04/23 10:25:25;;;;;;;2.40;1.35;;;20.90;56.90;;;;;;4899061;29;20207;-76
2023/04/23 10:27:55;;;;;;;2.78;1.83;;;20.90;56.00;;;;;;4900817;29;20283;-76
2023/04/23 10:30:23;;;;;;;3.50;1.23;;;20.90;55.50;;;;;;4900209;29;20529;-76
2023/04/23 10:32:52;;;;;;;1.17;1.08;;;21.00;56.80;;;;;;4902881;29;20200;-76
2023/04/23 10:35:22;;;;;;;2.35;1.42;;;21.00;56.70;;;;;;4901830;29;20585;-75
2023/04/23 10:37:51;;;;;;;2.03;0.95;;;21.10;57.20;;;;;;4903604;29;20207;-76
2023/04/23 10:40:24;;;;;;;1.58;1.10;;;21.20;57.80;;;;;;4897800;29;20248;-76
2023/04/23 10:42:54;;;;;;;3.83;1.90;;;21.20;57.00;;;;;;4910217;29;20288;-75
2023/04/23 10:45:22;;;;;;;1.95;1.23;;;21.40;57.30;;;;;;4891518;29;20669;-75
2023/04/23 10:47:55;;;;;;;2.60;1.55;;;21.40;56.50;;;;;;4895972;29;20610;-76
2023/04/23 10:50:30;;;;;;;2.08;1.20;;;21.50;56.40;;;;;;4893623;29;20199;-76
2023/04/23 10:52:58;;;;;;;2.38;1.30;;;21.60;57.80;;;;;;4901960;29;20207;-77
2023/04/23 10:55:38;;;;;;;2.75;1.33;;;21.70;57.50;;;;;;4893772;29;20534;-78
2023/04/23 10:58:07;;;;;;;0.90;0.82;;;21.70;54.90;;;;;;4898045;29;20626;-78
2023/04/23 11:00:46;;;;;;;1.40;0.90;;;21.60;54.90;;;;;;4898377;29;20227;-77
2023/04/23 11:03:31;;;;;;;1.83;1.00;;;21.60;54.80;;;;;;4898408;29;20216;-76
2023/04/23 11:06:03;;;;;;;1.25;1.00;;;21.70;55.40;;;;;;4893181;29;20907;-77
2023/04/23 11:08:32;;;;;;;1.75;0.93;;;21.70;55.50;;;;;;4895488;29;20235;-77
2023/04/23 11:11:01;;;;;;;2.65;1.13;;;21.80;56.00;;;;;;4898255;29;20202;-76
2023/04/23 11:13:30;;;;;;;2.28;1.27;;;21.90;56.30;;;;;;4907012;29;20207;-75
2023/04/23 11:16:21;;;;;;;4.07;1.73;;;21.90;56.00;;;;;;4894021;29;20193;-77
2023/04/23 11:19:02;;;;;;;1.52;0.90;;;21.90;56.00;;;;;;4896429;29;20290;-75
2023/04/23 11:22:01;;;;;;;1.45;1.00;;;22.00;56.40;;;;;;4895931;29;20283;-77
2023/04/23 11:24:32;;;;;;;1.10;1.00;;;22.10;56.90;;;;;;4897405;29;20199;-77
2023/04/23 11:27:01;;;;;;;3.10;1.25;;;22.10;56.90;;;;;;4897466;29;20232;-75
2023/04/23 11:29:30;;;;;;;1.90;1.10;;;22.20;56.40;;;;;;4892159;29;20235;-77
2023/04/23 11:31:58;;;;;;;4.82;1.52;;;22.20;56.10;;;;;;4894936;29;20209;-80
2023/04/23 11:34:32;;;;;;;3.75;1.20;;;22.20;53.60;;;;;;4893748;29;20206;-78
2023/04/23 11:37:03;;;;;;;2.45;1.77;;;22.30;52.90;;;;;;4901889;29;20227;-81
2023/04/23 11:39:32;;;;;;;2.20;1.50;;;22.20;52.40;;;;;;4895635;29;20208;-77
2023/04/23 11:42:02;;;;;;;2.95;1.33;;;22.30;53.40;;;;;;4901087;29;20196;-79
2023/04/23 11:44:31;;;;;;;1.90;1.35;;;22.30;54.50;;;;;;4896776;29;20665;-75
2023/04/23 11:47:01;;;;;;;2.22;1.40;;;22.40;54.70;;;;;;4901088;29;20193;-76
2023/04/23 11:49:30;;;;;;;4.97;1.98;;;22.50;55.00;;;;;;4903597;29;20208;-80
2023/04/23 11:52:01;;;;;;;3.50;1.90;;;22.50;53.10;;;;;;4903779;29;20197;-76
2023/04/23 11:54:30;;;;;;;0.98;0.80;;;22.50;53.60;;;;;;4897862;29;20247;-78
2023/04/23 11:56:58;;;;;;;2.75;1.27;;;22.60;53.40;;;;;;4895434;29;20196;-77
2023/04/23 11:59:28;;;;;;;2.45;1.17;;;22.60;52.50;;;;;;4897344;29;20287;-74
2023/04/23 12:01:58;;;;;;;2.83;1.60;;;22.70;53.40;;;;;;4894332;29;20203;-77
2023/04/23 12:04:28;;;;;;;2.03;1.20;;;22.70;51.50;;;;;;4897490;29;20201;-78
2023/04/23 12:06:57;;;;;;;1.58;1.10;;;22.70;50.30;;;;;;4896327;29;20244;-74
2023/04/23 12:09:28;;;;;;;5.90;1.48;;;22.80;51.90;;;;;;4896922;29;20860;-76
2023/04/23 12:11:58;;;;;;;2.75;1.17;;;22.80;52.40;;;;;;4899564;29;20245;-76
2023/04/23 12:14:28;;;;;;;2.13;1.40;;;22.90;52.10;;;;;;4898666;29;20236;-76
2023/04/23 12:17:08;;;;;;;2.55;1.33;;;22.90;50.50;;;;;;4899542;29;20197;-72
2023/04/23 12:19:37;;;;;;;18.02;2.30;;;22.90;50.10;;;;;;4896641;29;20252;-75
2023/04/23 12:22:07;;;;;;;2.70;1.55;;;23.00;51.20;;;;;;4901430;29;20286;-76
2023/04/23 12:24:50;;;;;;;2.75;1.40;;;23.00;48.80;;;;;;4897233;29;20203;-75
2023/04/23 12:27:21;;;;;;;2.40;1.50;;;23.10;50.20;;;;;;4897143;29;20200;-76
2023/04/23 12:29:50;;;;;;;1.60;0.98;;;23.20;50.10;;;;;;4893825;29;20268;-75
2023/04/23 12:32:21;;;;;;;3.67;1.45;;;23.20;50.70;;;;;;4896861;29;20209;-76
2023/04/23 12:34:55;;;;;;;2.17;1.30;;;23.10;49.30;;;;;;4897113;29;20248;-75
2023/04/23 12:37:25;;;;;;;2.70;1.40;;;23.10;49.40;;;;;;4895916;29;20228;-78
2023/04/23 12:39:58;;;;;;;2.22;1.08;;;23.10;49.00;;;;;;4897375;29;20645;-76
2023/04/23 12:42:26;;;;;;;2.80;1.67;;;23.00;48.60;;;;;;4896680;29;20649;-76
2023/04/23 12:44:55;;;;;;;1.77;1.25;;;23.10;48.90;;;;;;4896856;29;20269;-75
2023/04/23 12:47:23;;;;;;;2.83;1.38;;;23.20;49.40;;;;;;4895791;29;20200;-75
2023/04/23 12:49:55;;;;;;;3.42;1.58;;;23.30;50.20;;;;;;4895051;29;20291;-73
2023/04/23 12:52:24;;;;;;;2.67;1.30;;;23.30;49.80;;;;;;4896429;29;20195;-75
2023/04/23 12:54:55;;;;;;;2.67;1.45;;;23.50;50.10;;;;;;4895407;29;20252;-74
2023/04/23 12:57:26;;;;;;;1.98;1.20;;;23.50;49.90;;;;;;4893698;29;20208;-76
2023/04/23 12:59:55;;;;;;;3.25;1.25;;;23.70;50.00;;;;;;4890193;29;20193;-75